createdAt,value
2017-07-04T00:01:49.656Z,78.29
2017-07-04T00:04:17.164Z,77.70
2017-07-04T00:06:44.618Z,77.63
2017-07-04T00:09:12.068Z,77.33
2017-07-04T00:11:39.561Z,77.39
2017-07-04T00:14:07.015Z,77.75
2017-07-04T00:16:34.533Z,77.52
2017-07-04T00:19:01.986Z,76.78
2017-07-04T00:21:29.444Z,76.91
2017-07-04T00:23:56.935Z,77.26
2017-07-04T00:26:24.440Z,78.25
2017-07-04T00:28:51.907Z,78.47
2017-07-04T00:31:19.365Z,78.51
2017-07-04T00:33:46.877Z,78.76
2017-07-04T00:36:14.343Z,77.83
2017-07-04T00:38:41.802Z,77.67
2017-07-04T00:41:09.302Z,77.86
2017-07-04T00:43:36.761Z,78.33
2017-07-04T00:46:04.217Z,78.24
2017-07-04T00:48:31.712Z,78.13
2017-07-04T00:50:59.174Z,78.11
2017-07-04T00:53:26.663Z,78.25
2017-07-04T00:55:54.122Z,78.44
2017-07-04T00:58:21.587Z,78.51
2017-07-04T01:00:49.096Z,78.49
2017-07-04T01:03:16.552Z,79.11
2017-07-04T01:05:44.009Z,78.82
2017-07-04T01:08:11.518Z,79.42
2017-07-04T01:10:39.700Z,77.91
2017-07-04T01:13:07.163Z,78.19
2017-07-04T01:15:34.682Z,78.62
2017-07-04T01:18:02.134Z,78.49
2017-07-04T01:20:29.603Z,78.43
2017-07-04T01:22:57.110Z,78.64
2017-07-04T01:25:24.570Z,79.00
2017-07-04T01:27:52.028Z,79.34
2017-07-04T01:30:19.544Z,79.47
2017-07-04T01:32:47.968Z,79.75
2017-07-04T01:35:15.502Z,80.61
2017-07-04T01:37:43.007Z,80.31
2017-07-04T01:40:10.461Z,79.84
2017-07-04T01:42:37.906Z,79.94
2017-07-04T01:45:05.417Z,80.42
2017-07-04T01:47:32.892Z,80.95
2017-07-04T01:50:00.354Z,80.57
2017-07-04T01:52:27.843Z,80.75
2017-07-04T01:54:55.299Z,80.44
2017-07-04T01:57:22.757Z,80.94
2017-07-04T01:59:50.256Z,81.62
2017-07-04T02:02:17.718Z,81.35
2017-07-04T02:04:45.170Z,81.67
2017-07-04T02:07:12.673Z,81.78
2017-07-04T02:09:40.128Z,82.82
2017-07-04T02:12:07.582Z,82.39
2017-07-04T02:14:35.072Z,82.07
2017-07-04T02:17:02.623Z,82.15
2017-07-04T02:19:30.114Z,82.17
2017-07-04T02:21:57.619Z,82.82
2017-07-04T02:24:25.126Z,82.95
2017-07-04T02:26:52.593Z,82.26
2017-07-04T02:29:20.098Z,81.74
2017-07-04T02:31:47.559Z,82.38
2017-07-04T02:34:15.024Z,83.24
2017-07-04T02:36:42.515Z,83.24
2017-07-04T02:39:09.975Z,83.34
2017-07-04T02:41:37.466Z,83.18
2017-07-04T02:44:04.934Z,83.13
2017-07-04T02:46:32.445Z,83.43
2017-07-04T02:48:59.901Z,84.05
2017-07-04T02:51:27.361Z,84.17
2017-07-04T02:53:54.862Z,83.69
2017-07-04T02:56:22.318Z,83.75
2017-07-04T02:58:49.770Z,83.32
2017-07-04T03:01:17.270Z,83.26
2017-07-04T03:03:44.726Z,83.24
2017-07-04T03:06:12.238Z,84.37
2017-07-04T03:08:39.698Z,83.11
2017-07-04T03:11:07.158Z,83.03
2017-07-04T03:13:34.662Z,83.46
2017-07-04T03:16:02.125Z,84.83
2017-07-04T03:18:29.585Z,85.18
2017-07-04T03:20:57.097Z,85.17
2017-07-04T03:23:24.642Z,84.26
2017-07-04T03:25:52.093Z,84.12
2017-07-04T03:28:19.605Z,83.99
2017-07-04T03:30:47.114Z,83.42
2017-07-04T03:33:14.583Z,83.94
2017-07-04T03:35:42.083Z,83.98
2017-07-04T03:38:09.598Z,84.47
2017-07-04T03:40:37.053Z,83.83
2017-07-04T03:43:04.510Z,83.36
2017-07-04T03:45:32.003Z,84.44
2017-07-04T03:47:59.490Z,84.76
2017-07-04T03:50:26.991Z,84.25
2017-07-04T03:52:54.453Z,83.79
2017-07-04T03:55:21.955Z,85.26
2017-07-04T03:57:49.452Z,85.19
2017-07-04T04:00:16.912Z,84.78
2017-07-04T04:02:44.374Z,85.24
2017-07-04T04:05:11.870Z,84.70
2017-07-04T04:07:39.365Z,83.58
2017-07-04T04:10:06.871Z,84.39
2017-07-04T04:12:34.325Z,84.74
2017-07-04T04:15:01.785Z,84.84
2017-07-04T04:17:29.281Z,84.25
2017-07-04T04:19:56.735Z,83.43
2017-07-04T04:22:24.188Z,83.54
2017-07-04T04:24:51.694Z,82.86
2017-07-04T04:27:19.166Z,83.70
2017-07-04T04:29:46.630Z,84.50
2017-07-04T04:32:14.138Z,84.47
2017-07-04T04:34:41.605Z,84.06
2017-07-04T04:37:09.058Z,84.28
2017-07-04T04:39:36.555Z,83.96
2017-07-04T04:42:04.059Z,83.89
2017-07-04T04:44:31.526Z,83.87
2017-07-04T04:46:58.981Z,84.61
2017-07-04T04:49:26.478Z,83.67
2017-07-04T04:51:53.989Z,83.79
2017-07-04T04:54:21.457Z,83.97
2017-07-04T04:56:48.927Z,83.50
2017-07-04T04:59:16.436Z,83.74
2017-07-04T05:01:43.930Z,82.81
2017-07-04T05:04:11.399Z,82.53
2017-07-04T05:06:38.898Z,82.94
2017-07-04T05:09:06.364Z,83.25
2017-07-04T05:11:33.826Z,82.57
2017-07-04T05:14:01.329Z,81.21
2017-07-04T05:16:28.805Z,81.92
2017-07-04T05:18:56.281Z,81.74
2017-07-04T05:21:23.786Z,81.07
2017-07-04T05:23:51.251Z,80.99
2017-07-04T05:26:18.711Z,76.38
2017-07-04T05:28:46.206Z,75.63
2017-07-04T05:31:13.677Z,75.18
2017-07-04T05:33:41.190Z,74.87
2017-07-04T05:36:08.641Z,75.83
2017-07-04T05:38:36.108Z,76.06
2017-07-04T05:41:03.613Z,77.05
2017-07-04T05:43:31.069Z,77.25
2017-07-04T05:45:58.535Z,76.57
2017-07-04T05:48:26.046Z,75.27
2017-07-04T05:50:53.504Z,75.85
2017-07-04T05:53:20.972Z,74.48
2017-07-04T05:55:48.476Z,74.75
2017-07-04T05:58:15.937Z,74.30
2017-07-04T06:00:43.451Z,75.04
2017-07-04T06:03:10.913Z,74.90
2017-07-04T06:05:38.382Z,74.69
2017-07-04T06:08:05.878Z,75.35
2017-07-04T06:10:33.347Z,74.49
2017-07-04T06:13:00.849Z,73.57
2017-07-04T06:15:28.305Z,71.24
2017-07-04T06:17:55.762Z,70.69
2017-07-04T06:20:23.281Z,70.04
2017-07-04T06:22:50.743Z,70.01
2017-07-04T06:25:18.201Z,70.21
2017-07-04T06:27:45.702Z,70.20
2017-07-04T06:30:13.152Z,69.64
2017-07-04T06:32:40.655Z,70.02
2017-07-04T06:35:08.110Z,69.81
2017-07-04T06:37:35.569Z,69.74
2017-07-04T06:40:03.071Z,69.51
2017-07-04T06:42:30.536Z,68.29
2017-07-04T06:44:57.982Z,67.37
2017-07-04T06:47:25.474Z,67.08
2017-07-04T06:49:52.932Z,66.68
2017-07-04T06:52:20.442Z,66.46
2017-07-04T06:54:47.898Z,64.55
2017-07-04T06:57:15.398Z,64.06
2017-07-04T06:59:42.854Z,63.92
2017-07-04T07:02:10.304Z,64.51
2017-07-04T07:04:37.801Z,62.96
2017-07-04T07:07:05.246Z,63.65
2017-07-04T07:09:32.694Z,63.79
2017-07-04T07:12:00.181Z,63.46
2017-07-04T07:14:27.686Z,63.05
2017-07-04T07:16:55.153Z,62.85
2017-07-04T07:19:22.607Z,62.59
2017-07-04T07:21:50.101Z,63.82
2017-07-04T07:24:17.554Z,62.39
2017-07-04T07:26:45.006Z,62.48
2017-07-04T07:29:12.533Z,61.93
2017-07-04T07:31:39.985Z,61.75
2017-07-04T07:34:07.455Z,60.75
2017-07-04T07:36:34.939Z,62.64
2017-07-04T07:39:02.409Z,59.94
2017-07-04T07:41:29.915Z,61.17
2017-07-04T07:43:57.381Z,59.36
2017-07-04T07:46:24.853Z,59.70
2017-07-04T07:48:52.344Z,59.18
2017-07-04T07:51:19.801Z,58.58
2017-07-04T07:53:47.245Z,58.42
2017-07-04T07:56:14.729Z,58.93
2017-07-04T07:58:42.181Z,57.10
2017-07-04T08:01:09.635Z,56.52
2017-07-04T08:03:37.129Z,55.44
2017-07-04T08:06:04.590Z,55.50
2017-07-04T08:08:32.044Z,55.62
2017-07-04T08:10:59.557Z,56.11
2017-07-04T08:13:27.009Z,56.59
2017-07-04T08:15:54.468Z,57.40
2017-07-04T08:18:21.961Z,55.53
2017-07-04T08:20:49.469Z,56.93
2017-07-04T08:23:16.941Z,55.50
2017-07-04T08:25:44.402Z,55.97
2017-07-04T08:28:11.893Z,56.39
2017-07-04T08:30:39.347Z,56.27
2017-07-04T08:33:06.802Z,55.21
2017-07-04T08:35:34.314Z,56.50
2017-07-04T08:38:01.781Z,55.62
2017-07-04T08:40:29.241Z,54.74
2017-07-04T08:42:56.744Z,54.94
2017-07-04T08:45:24.203Z,55.09
2017-07-04T08:47:51.654Z,54.14
2017-07-04T08:50:19.158Z,54.13
2017-07-04T08:52:46.609Z,52.90
2017-07-04T08:55:14.056Z,54.46
2017-07-04T08:57:41.562Z,54.94
2017-07-04T09:00:09.014Z,53.01
2017-07-04T09:02:36.470Z,51.08
2017-07-04T09:05:03.969Z,51.25
2017-07-04T09:07:31.444Z,48.58
2017-07-04T09:09:58.893Z,50.06
2017-07-04T09:12:26.400Z,49.20
2017-07-04T09:14:53.856Z,48.51
2017-07-04T09:17:21.311Z,50.04
2017-07-04T09:19:48.797Z,49.14
2017-07-04T09:22:16.241Z,47.57
2017-07-04T09:24:43.749Z,47.37
2017-07-04T09:27:11.205Z,49.29
2017-07-04T09:29:38.661Z,49.08
2017-07-04T09:32:06.166Z,48.84
2017-07-04T09:34:33.622Z,47.10
2017-07-04T09:37:01.097Z,47.34
2017-07-04T09:39:28.620Z,47.16
2017-07-04T09:41:56.070Z,47.18
2017-07-04T09:44:23.529Z,48.65
2017-07-04T09:46:51.034Z,48.98
2017-07-04T09:49:18.493Z,48.74
2017-07-04T09:51:45.938Z,49.06
2017-07-04T09:54:13.446Z,48.30
2017-07-04T09:56:40.898Z,48.00
2017-07-04T09:59:08.363Z,48.02
2017-07-04T10:01:35.858Z,48.15
2017-07-04T10:04:03.310Z,48.86
2017-07-04T10:06:30.775Z,48.99
2017-07-04T10:08:58.291Z,47.24
2017-07-04T10:11:25.746Z,49.44
2017-07-04T10:13:53.210Z,47.08
2017-07-04T10:16:20.702Z,47.97
2017-07-04T10:18:48.197Z,47.81
2017-07-04T10:21:15.653Z,46.80
2017-07-04T10:23:43.106Z,46.46
2017-07-04T10:26:10.598Z,47.60
2017-07-04T10:28:38.060Z,48.58
2017-07-04T10:31:05.558Z,48.05
2017-07-04T10:33:33.011Z,49.23
2017-07-04T10:36:00.521Z,46.41
2017-07-04T10:38:27.978Z,48.15
2017-07-04T10:40:55.449Z,48.89
2017-07-04T10:43:22.948Z,50.61
2017-07-04T10:45:50.450Z,49.96
2017-07-04T10:48:17.966Z,50.55
2017-07-04T10:50:45.422Z,51.44
2017-07-04T10:53:12.883Z,50.59
2017-07-04T10:55:40.378Z,51.24
2017-07-04T10:58:07.847Z,50.52
2017-07-04T11:00:35.297Z,50.45
2017-07-04T11:03:02.903Z,50.88
2017-07-04T11:05:30.350Z,50.73
2017-07-04T11:07:57.806Z,50.09
2017-07-04T11:10:25.294Z,49.56
2017-07-04T11:12:52.747Z,49.64
2017-07-04T11:15:20.248Z,49.13
2017-07-04T11:17:47.705Z,49.59
2017-07-04T11:20:15.167Z,50.55
2017-07-04T11:22:42.657Z,50.11
2017-07-04T11:25:10.115Z,52.21
2017-07-04T11:27:37.610Z,49.01
2017-07-04T11:30:05.065Z,49.03
2017-07-04T11:32:32.525Z,48.64
2017-07-04T11:35:00.023Z,49.63
2017-07-04T11:37:27.481Z,47.45
2017-07-04T11:39:54.945Z,47.23
2017-07-04T11:42:22.455Z,45.53
2017-07-04T11:44:49.919Z,42.89
2017-07-04T11:47:17.488Z,43.18
2017-07-04T11:49:44.995Z,42.95
2017-07-04T11:52:12.443Z,43.38
2017-07-04T11:54:39.898Z,39.22
2017-07-04T11:57:07.394Z,38.47
2017-07-04T11:59:34.853Z,36.60
2017-07-04T12:02:02.302Z,35.24
2017-07-04T12:04:29.814Z,35.86
2017-07-04T12:06:57.276Z,36.67
2017-07-04T12:09:24.737Z,35.83
2017-07-04T12:11:52.238Z,36.22
2017-07-04T12:14:19.693Z,35.88
2017-07-04T12:16:47.143Z,34.29
2017-07-04T12:19:14.650Z,33.86
2017-07-04T12:21:42.117Z,35.87
2017-07-04T12:24:09.579Z,35.60
2017-07-04T12:26:37.062Z,36.65
2017-07-04T12:29:04.567Z,35.67
2017-07-04T12:31:32.014Z,34.60
2017-07-04T12:33:59.469Z,33.95
2017-07-04T12:36:26.958Z,32.46
2017-07-04T12:38:54.413Z,34.59
2017-07-04T12:41:21.873Z,35.46
2017-07-04T12:43:49.374Z,37.94
2017-07-04T12:46:16.847Z,39.10
2017-07-04T12:48:44.313Z,39.38
2017-07-04T12:51:11.828Z,39.61
2017-07-04T12:53:39.290Z,39.47
2017-07-04T12:56:06.763Z,39.12
2017-07-04T12:58:34.270Z,40.58
2017-07-04T13:01:01.723Z,39.32
2017-07-04T13:03:29.186Z,39.28
2017-07-04T13:05:56.690Z,38.92
2017-07-04T13:08:24.142Z,38.85
2017-07-04T13:10:51.636Z,39.50
2017-07-04T13:13:19.127Z,39.76
2017-07-04T13:15:46.573Z,40.09
2017-07-04T13:18:14.061Z,39.78
2017-07-04T13:20:41.511Z,40.75
2017-07-04T13:23:08.980Z,40.72
2017-07-04T13:25:36.497Z,40.75
2017-07-04T13:28:03.959Z,40.69
2017-07-04T13:30:31.842Z,41.37
2017-07-04T13:32:59.351Z,41.60
2017-07-04T13:35:26.868Z,41.83
2017-07-04T13:37:54.334Z,42.41
2017-07-04T13:40:21.779Z,41.74
2017-07-04T13:42:49.286Z,41.88
2017-07-04T13:45:16.738Z,41.84
2017-07-04T13:47:44.211Z,42.11
2017-07-04T13:50:11.714Z,41.88
2017-07-04T13:52:39.174Z,40.69
2017-07-04T13:55:06.645Z,40.81
2017-07-04T13:57:34.154Z,40.93
2017-07-04T14:00:01.601Z,37.86
2017-07-04T14:02:29.054Z,37.46
2017-07-04T14:04:56.552Z,37.67
2017-07-04T14:07:24.019Z,36.94
2017-07-04T14:09:51.530Z,36.32
2017-07-04T14:12:18.994Z,33.47
2017-07-04T14:14:46.454Z,30.60
2017-07-04T14:17:13.946Z,30.95
2017-07-04T14:19:41.399Z,32.05
2017-07-04T14:22:08.896Z,33.84
2017-07-04T14:24:36.362Z,33.90
2017-07-04T14:27:03.875Z,34.29
2017-07-04T14:29:31.370Z,34.99
2017-07-04T14:31:58.825Z,34.10
2017-07-04T14:34:26.283Z,33.19
2017-07-04T14:36:53.775Z,31.95
2017-07-04T14:39:21.229Z,32.46
2017-07-04T14:41:48.731Z,30.52
2017-07-04T14:44:16.238Z,32.11
2017-07-04T14:46:43.862Z,29.97
2017-07-04T14:49:11.339Z,31.87
2017-07-04T14:51:38.830Z,30.76
2017-07-04T14:54:06.338Z,30.29
2017-07-04T14:56:33.794Z,28.57
2017-07-04T14:59:01.259Z,30.92
2017-07-04T15:01:28.766Z,32.61
2017-07-04T15:03:56.243Z,29.68
2017-07-04T15:06:23.695Z,28.67
2017-07-04T15:08:51.202Z,31.69
2017-07-04T15:11:18.644Z,29.60
2017-07-04T15:13:46.105Z,30.10
2017-07-04T15:16:13.614Z,29.97
2017-07-04T15:18:41.062Z,33.50
2017-07-04T15:21:08.559Z,33.67
2017-07-04T15:23:36.012Z,33.60
2017-07-04T15:26:03.472Z,30.05
2017-07-04T15:28:30.982Z,29.57
2017-07-04T15:30:58.446Z,30.06
2017-07-04T15:33:25.903Z,30.99
2017-07-04T15:35:53.412Z,31.13
2017-07-04T15:38:20.871Z,33.14
2017-07-04T15:40:48.331Z,30.21
2017-07-04T15:43:15.854Z,29.76
2017-07-04T15:45:43.318Z,30.16
2017-07-04T15:48:11.495Z,34.05
2017-07-04T15:50:38.993Z,34.16
2017-07-04T15:53:06.457Z,33.37
2017-07-04T15:55:33.914Z,33.77
2017-07-04T15:58:01.417Z,32.61
2017-07-04T16:00:28.878Z,31.03
2017-07-04T16:02:56.571Z,30.00
2017-07-04T16:05:24.067Z,30.13
2017-07-04T16:07:51.523Z,30.10
2017-07-04T16:10:19.207Z,30.38
2017-07-04T16:12:46.662Z,29.04
2017-07-04T16:15:14.124Z,28.28
2017-07-04T16:17:41.630Z,28.71
2017-07-04T16:20:09.517Z,28.63
2017-07-04T16:22:36.966Z,30.73
2017-07-04T16:25:04.711Z,29.38
2017-07-04T16:27:32.483Z,28.45
2017-07-04T16:29:59.993Z,27.94
2017-07-04T16:32:27.446Z,28.22
2017-07-04T16:34:54.901Z,27.59
2017-07-04T16:37:22.428Z,27.74
2017-07-04T16:39:50.440Z,28.32
2017-07-04T16:42:18.210Z,27.83
2017-07-04T16:44:45.976Z,29.18
2017-07-04T16:47:13.444Z,30.67
2017-07-04T16:49:40.955Z,30.13
2017-07-04T16:52:09.003Z,29.34
2017-07-04T16:54:36.458Z,27.79
2017-07-04T16:57:03.965Z,27.31
2017-07-04T16:59:31.429Z,30.25
2017-07-04T17:01:58.879Z,30.25
2017-07-04T17:04:26.402Z,28.62
2017-07-04T17:06:53.858Z,29.48
2017-07-04T17:09:21.324Z,30.15
2017-07-04T17:11:48.823Z,28.81
2017-07-04T17:14:17.122Z,27.42
2017-07-04T17:16:44.588Z,26.95
2017-07-04T17:19:12.093Z,28.34
2017-07-04T17:21:39.552Z,28.17
2017-07-04T17:24:07.010Z,29.09
2017-07-04T17:26:34.510Z,29.19
2017-07-04T17:29:01.961Z,28.17
2017-07-04T17:31:29.413Z,26.93
2017-07-04T17:33:57.631Z,28.11
2017-07-04T17:36:25.079Z,28.39
2017-07-04T17:38:52.534Z,28.45
2017-07-04T17:41:20.046Z,29.33
2017-07-04T17:43:47.499Z,27.59
2017-07-04T17:46:14.959Z,28.46
2017-07-04T17:48:42.492Z,29.21
2017-07-04T17:51:09.953Z,30.43
2017-07-04T17:53:37.408Z,30.64
2017-07-04T17:56:04.919Z,31.13
2017-07-04T17:58:32.391Z,31.05
2017-07-04T18:00:59.856Z,30.77
2017-07-04T18:03:27.354Z,31.12
2017-07-04T18:05:54.826Z,30.53
2017-07-04T18:08:22.296Z,31.93
2017-07-04T18:10:50.183Z,32.13
2017-07-04T18:13:17.673Z,31.86
2017-07-04T18:15:45.167Z,31.46
2017-07-04T18:18:12.666Z,34.28
2017-07-04T18:20:40.131Z,33.89
2017-07-04T18:23:07.638Z,33.75
2017-07-04T18:25:35.095Z,34.52
2017-07-04T18:28:02.598Z,34.37
2017-07-04T18:30:30.053Z,35.36
2017-07-04T18:32:57.772Z,35.60
2017-07-04T18:35:25.306Z,35.65
2017-07-04T18:37:52.764Z,36.63
2017-07-04T18:40:20.215Z,36.94
2017-07-04T18:42:47.719Z,38.12
2017-07-04T18:45:15.202Z,38.87
2017-07-04T18:47:42.711Z,40.39
2017-07-04T18:50:10.183Z,42.21
2017-07-04T18:52:37.648Z,42.77
2017-07-04T18:55:05.171Z,43.63
2017-07-04T18:57:32.644Z,44.85
2017-07-04T19:00:00.101Z,46.82
2017-07-04T19:02:27.604Z,47.34
2017-07-04T19:04:55.072Z,48.92
2017-07-04T19:07:22.524Z,50.55
2017-07-04T19:09:50.036Z,51.28
2017-07-04T19:12:17.503Z,51.40
2017-07-04T19:14:44.974Z,52.19
2017-07-04T19:17:12.486Z,51.98
2017-07-04T19:19:39.942Z,53.85
2017-07-04T19:22:07.413Z,54.59
2017-07-04T19:24:34.952Z,53.91
2017-07-04T19:27:02.469Z,53.46
2017-07-04T19:29:29.928Z,53.27
2017-07-04T19:31:57.389Z,53.38
2017-07-04T19:34:24.908Z,53.33
2017-07-04T19:36:52.399Z,53.96
2017-07-04T19:39:19.853Z,56.40
2017-07-04T19:41:47.350Z,58.77
2017-07-04T19:44:14.819Z,58.47
2017-07-04T19:46:42.275Z,59.19
2017-07-04T19:49:09.777Z,59.46
2017-07-04T19:51:37.243Z,59.94
2017-07-04T19:54:04.711Z,60.30
2017-07-04T19:56:32.217Z,61.74
2017-07-04T19:58:59.661Z,60.67
2017-07-04T20:01:27.172Z,62.27
2017-07-04T20:03:54.637Z,60.14
2017-07-04T20:06:23.030Z,60.48
2017-07-04T20:08:50.491Z,61.71
2017-07-04T20:11:17.953Z,60.57
2017-07-04T20:13:45.437Z,61.49
2017-07-04T20:16:12.956Z,62.86
2017-07-04T20:18:40.423Z,62.58
2017-07-04T20:21:07.877Z,61.97
2017-07-04T20:23:35.399Z,63.54
2017-07-04T20:26:02.902Z,63.09
2017-07-04T20:28:30.355Z,63.99
2017-07-04T20:30:58.130Z,65.68
2017-07-04T20:33:25.951Z,66.94
2017-07-04T20:35:53.430Z,66.67
2017-07-04T20:38:20.991Z,67.18
2017-07-04T20:40:48.891Z,66.63
2017-07-04T20:43:16.368Z,66.86
2017-07-04T20:45:44.065Z,67.44
2017-07-04T20:48:11.520Z,67.83
2017-07-04T20:50:38.994Z,67.99
2017-07-04T20:53:06.498Z,68.70
2017-07-04T20:55:33.954Z,68.37
2017-07-04T20:58:01.413Z,67.13
2017-07-04T21:00:28.902Z,66.38
2017-07-04T21:02:56.375Z,66.37
2017-07-04T21:05:24.027Z,67.21
2017-07-04T21:07:51.543Z,67.19
2017-07-04T21:10:18.998Z,67.77
2017-07-04T21:12:46.496Z,68.50
2017-07-04T21:15:13.950Z,69.76
2017-07-04T21:17:41.458Z,71.43
2017-07-04T21:20:08.922Z,70.83
2017-07-04T21:22:36.378Z,69.92
2017-07-04T21:25:03.884Z,69.34
2017-07-04T21:27:31.347Z,69.55
2017-07-04T21:29:58.866Z,70.11
2017-07-04T21:32:26.313Z,70.25
2017-07-04T21:34:53.806Z,70.60
2017-07-04T21:37:21.259Z,71.71
2017-07-04T21:39:48.717Z,71.87
2017-07-04T21:42:16.571Z,71.64
2017-07-04T21:44:44.039Z,72.46
2017-07-04T21:47:11.495Z,72.09
2017-07-04T21:49:38.970Z,72.74
2017-07-04T21:52:06.435Z,73.62
2017-07-04T21:54:33.974Z,72.56
2017-07-04T21:57:01.433Z,72.37
2017-07-04T21:59:28.896Z,71.55
2017-07-04T22:01:56.376Z,71.26
2017-07-04T22:04:23.839Z,71.10
2017-07-04T22:06:51.339Z,71.09
2017-07-04T22:09:18.794Z,71.20
2017-07-04T22:11:46.241Z,71.92
2017-07-04T22:14:13.728Z,72.84
2017-07-04T22:16:41.188Z,72.51
2017-07-04T22:19:08.652Z,72.78
2017-07-04T22:21:36.127Z,73.07
2017-07-04T22:24:03.613Z,73.77
2017-07-04T22:26:31.063Z,73.70
2017-07-04T22:28:58.514Z,73.17
2017-07-04T22:31:25.997Z,73.11
2017-07-04T22:33:53.460Z,73.36
2017-07-04T22:36:20.945Z,74.03
2017-07-04T22:38:48.403Z,75.13
2017-07-04T22:41:15.877Z,74.12
2017-07-04T22:43:43.326Z,73.56
2017-07-04T22:46:10.808Z,73.70
2017-07-04T22:48:38.442Z,73.59
2017-07-04T22:51:05.901Z,73.35
2017-07-04T22:53:33.354Z,74.65
2017-07-04T22:56:00.827Z,75.90
2017-07-04T22:58:28.435Z,76.98
2017-07-04T23:00:55.892Z,76.67
2017-07-04T23:03:23.347Z,77.15
2017-07-04T23:05:50.821Z,76.13
2017-07-04T23:08:18.286Z,75.18
2017-07-04T23:10:46.002Z,75.95
2017-07-04T23:13:13.466Z,76.16
2017-07-04T23:15:41.569Z,75.92
2017-07-04T23:18:09.028Z,76.34
2017-07-04T23:20:36.577Z,77.67
2017-07-04T23:23:04.083Z,78.08
2017-07-04T23:25:31.532Z,77.91
2017-07-04T23:27:58.987Z,77.85
2017-07-04T23:30:26.488Z,77.17
2017-07-04T23:32:53.952Z,76.61
2017-07-04T23:35:21.416Z,78.04
2017-07-04T23:37:48.898Z,78.16
2017-07-04T23:40:16.365Z,77.47
2017-07-04T23:42:43.839Z,77.09
2017-07-04T23:45:11.720Z,76.34
2017-07-04T23:47:39.187Z,79.29
2017-07-04T23:50:06.641Z,78.43
2017-07-04T23:52:34.115Z,79.31
2017-07-04T23:55:01.562Z,78.75
2017-07-04T23:57:29.054Z,78.04
2017-07-04T23:59:56.521Z,79.16
